Time;durP1;ratioP1;P1;durP2;ratioP2;P2;SDS_P1;SDS_P2;PMS_P1;PMS_P2;Temp;Humidity;BMP_temperature;BMP_pressure;BME280_temperature;BME280_humidity;BME280_pressure;Samples;Min_cycle;Max_cycle;Signal;HPM_P1;HPM_P2
2023/03/27 00:01:10;;;;;;;0.60;0.60;;;;;7.60;95243.00;;;;5004804;28;20230;-69
2023/03/27 00:03:59;;;;;;;0.93;0.70;;;;;7.90;95267.00;;;;4998196;28;20223;-68
2023/03/27 00:06:48;;;;;;;1.50;0.80;;;;;7.90;95264.00;;;;5004791;28;20203;-68
2023/03/27 00:09:38;;;;;;;1.10;1.00;;;;;8.00;95256.00;;;;5003989;28;20308;-68
2023/03/27 00:12:26;;;;;;;3.17;1.13;;;;;7.80;95256.00;;;;5005348;28;20256;-68
2023/03/27 00:15:17;;;;;;;0.73;0.73;;;;;7.90;95268.00;;;;5011022;28;20256;-68
2023/03/27 00:18:06;;;;;;;1.33;0.90;;;;;7.90;95254.00;;;;5010800;28;20576;-68
2023/03/27 00:20:59;;;;;;;0.87;0.73;;;;;7.90;95242.00;;;;5004938;28;20700;-68
2023/03/27 00:23:48;;;;;;;0.77;0.70;;;;;8.10;95250.00;;;;5004612;28;20233;-69
2023/03/27 00:26:39;;;;;;;4.30;0.80;;;;;8.10;95247.00;;;;5012004;28;20284;-68
2023/03/27 00:29:28;;;;;;;1.63;1.07;;;;;8.10;95240.00;;;;5009715;28;20228;-69
2023/03/27 00:32:18;;;;;;;1.13;0.93;;;;;7.80;95236.00;;;;5010146;28;20245;-69
2023/03/27 00:35:09;;;;;;;0.80;0.80;;;;;7.80;95230.00;;;;5005405;28;20206;-68
2023/03/27 00:37:58;;;;;;;0.63;0.63;;;;;7.80;95234.00;;;;5006102;28;20257;-69
2023/03/27 00:40:48;;;;;;;2.13;0.83;;;;;7.60;95223.00;;;;5004467;28;20250;-69
2023/03/27 00:43:41;;;;;;;0.87;0.70;;;;;7.60;95230.00;;;;5011288;28;20209;-68
2023/03/27 00:46:37;;;;;;;1.47;0.80;;;;;7.60;95226.00;;;;5006036;28;20226;-68
2023/03/27 00:49:29;;;;;;;1.37;1.23;;;;;7.60;95226.00;;;;5007317;28;20222;-68
2023/03/27 00:52:20;;;;;;;0.63;0.63;;;;;7.70;95226.00;;;;5005304;28;20217;-68
2023/03/27 00:55:13;;;;;;;0.80;0.80;;;;;7.70;95226.00;;;;5009514;28;20210;-68
2023/03/27 00:58:05;;;;;;;1.13;0.70;;;;;7.60;95202.00;;;;5007527;28;20224;-68
2023/03/27 01:00:55;;;;;;;1.13;0.83;;;;;7.80;95202.00;;;;5005109;28;20258;-68
2023/03/27 01:03:46;;;;;;;1.87;0.87;;;;;7.90;95195.00;;;;5008948;28;20217;-68
2023/03/27 01:06:36;;;;;;;1.47;0.90;;;;;7.90;95190.00;;;;5009476;28;20573;-68
2023/03/27 01:09:26;;;;;;;0.70;0.70;;;;;7.60;95196.00;;;;5008208;28;20255;-67
2023/03/27 01:12:34;;;;;;;0.70;0.70;;;;;7.40;95192.00;;;;5004226;28;20857;-66
2023/03/27 01:15:31;;;;;;;0.77;0.77;;;;;7.10;95178.00;;;;5007036;28;20751;-68
2023/03/27 01:18:33;;;;;;;1.77;1.07;;;;;7.30;95194.00;;;;5001330;28;20582;-66
2023/03/27 01:22:03;;;;;;;0.70;0.70;;;;;7.30;95169.00;;;;5003695;28;20732;-67
2023/03/27 01:25:15;;;;;;;1.13;1.03;;;;;7.70;95180.00;;;;4996319;28;20275;-67
2023/03/27 01:28:28;;;;;;;1.60;1.07;;;;;7.80;95154.00;;;;4999254;28;20202;-67
2023/03/27 01:31:31;;;;;;;3.43;1.37;;;;;7.90;95150.00;;;;5007844;28;20346;-67
2023/03/27 01:34:41;;;;;;;2.20;1.53;;;;;7.80;95143.00;;;;5005562;28;20250;-66
2023/03/27 01:38:08;;;;;;;1.60;1.50;;;;;7.90;95136.00;;;;5006872;28;20249;-66
2023/03/27 01:41:04;;;;;;;1.97;1.70;;;;;7.90;95132.00;;;;4980468;28;20282;-67
2023/03/27 01:43:56;;;;;;;1.30;1.20;;;;;7.70;95121.00;;;;5004597;28;20210;-67
2023/03/27 01:46:49;;;;;;;1.40;1.30;;;;;7.50;95119.00;;;;4999602;28;20206;-67
2023/03/27 01:49:41;;;;;;;2.93;1.97;;;;;7.60;95116.00;;;;5006842;28;20222;-67
2023/03/27 01:52:34;;;;;;;2.30;2.10;;;;;7.60;95098.00;;;;5004284;28;20922;-67
2023/03/27 01:55:25;;;;;;;2.50;2.00;;;;;7.60;95089.00;;;;5008110;28;20682;-67
2023/03/27 01:58:18;;;;;;;2.27;1.97;;;;;7.60;95084.00;;;;5008324;28;20242;-67
2023/03/27 02:01:09;;;;;;;3.90;2.00;;;;;7.60;95085.00;;;;5001560;28;20226;-68
2023/03/27 02:04:01;;;;;;;1.40;1.30;;;;;7.20;95078.00;;;;5002414;28;20215;-67
2023/03/27 02:06:53;;;;;;;1.20;1.10;;;;;7.50;95089.00;;;;5007884;28;20210;-67
2023/03/27 02:09:46;;;;;;;1.40;1.20;;;;;7.50;95078.00;;;;5003774;28;20314;-67
2023/03/27 02:12:36;;;;;;;1.27;1.00;;;;;7.60;95075.00;;;;4998660;28;20210;-67
2023/03/27 02:15:30;;;;;;;5.70;1.00;;;;;7.50;95071.00;;;;5007410;28;20255;-68
2023/03/27 02:18:24;;;;;;;0.97;0.87;;;;;7.10;95072.00;;;;5007672;28;20214;-68
2023/03/27 02:21:14;;;;;;;1.10;0.90;;;;;7.50;95078.00;;;;5008450;28;20285;-68
2023/03/27 02:24:04;;;;;;;1.90;0.67;;;;;7.40;95061.00;;;;5006438;28;20264;-68
2023/03/27 02:26:58;;;;;;;0.70;0.70;;;;;7.50;95063.00;;;;5005286;28;20207;-68
2023/03/27 02:29:54;;;;;;;0.73;0.73;;;;;7.50;95069.00;;;;5003481;28;20607;-68
2023/03/27 02:32:52;;;;;;;0.53;0.53;;;;;7.30;95051.00;;;;5003389;28;20288;-68
2023/03/27 02:35:48;;;;;;;3.13;0.60;;;;;7.60;95062.00;;;;5001990;28;20210;-69
2023/03/27 02:38:40;;;;;;;0.50;0.50;;;;;7.40;95063.00;;;;5003293;28;20259;-69
2023/03/27 02:41:33;;;;;;;0.60;0.60;;;;;7.50;95054.00;;;;5005294;28;20280;-68
2023/03/27 02:44:30;;;;;;;0.60;0.60;;;;;7.30;95049.00;;;;5006892;28;20214;-68
2023/03/27 02:47:26;;;;;;;0.70;0.70;;;;;7.30;95057.00;;;;5006648;28;20248;-69
2023/03/27 02:50:18;;;;;;;0.77;0.77;;;;;7.30;95055.00;;;;5006467;28;20229;-69
2023/03/27 02:53:08;;;;;;;0.60;0.60;;;;;7.30;95062.00;;;;5006862;28;20209;-69
2023/03/27 02:55:59;;;;;;;0.50;0.40;;;;;7.10;95047.00;;;;5005165;28;20268;-69
2023/03/27 02:58:50;;;;;;;4.43;0.60;;;;;7.30;95048.00;;;;5001952;28;20224;-69
2023/03/27 03:01:40;;;;;;;0.50;0.50;;;;;7.20;95044.00;;;;5002639;28;20210;-69
2023/03/27 03:04:33;;;;;;;0.20;0.20;;;;;7.20;95055.00;;;;5000773;28;20213;-69
2023/03/27 03:07:25;;;;;;;0.30;0.30;;;;;6.90;95041.00;;;;5002861;28;20267;-66
2023/03/27 03:10:15;;;;;;;0.23;0.23;;;;;7.00;95041.00;;;;5005918;28;20253;-67
2023/03/27 03:13:04;;;;;;;0.30;0.30;;;;;7.00;95053.00;;;;5007969;28;20268;-68
2023/03/27 03:15:53;;;;;;;5.93;0.60;;;;;7.20;95054.00;;;;5005683;28;20437;-68
2023/03/27 03:18:42;;;;;;;0.43;0.43;;;;;6.90;95052.00;;;;5002790;28;20245;-68
2023/03/27 03:21:31;;;;;;;0.30;0.30;;;;;6.80;95058.00;;;;5005484;28;20222;-66
2023/03/27 03:24:22;;;;;;;0.30;0.30;;;;;7.10;95054.00;;;;5005885;28;20704;-68
2023/03/27 03:27:13;;;;;;;0.40;0.40;;;;;7.00;95048.00;;;;5006268;28;20209;-70
2023/03/27 03:30:03;;;;;;;0.30;0.30;;;;;7.10;95060.00;;;;5006589;28;20853;-68
2023/03/27 03:32:53;;;;;;;0.50;0.40;;;;;7.10;95052.00;;;;5005376;28;20689;-69
2023/03/27 03:35:45;;;;;;;0.50;0.47;;;;;7.00;95055.00;;;;5001903;28;20202;-68
2023/03/27 03:38:34;;;;;;;0.30;0.30;;;;;6.80;95052.00;;;;5002879;28;20284;-66
2023/03/27 03:41:24;;;;;;;0.30;0.30;;;;;7.00;95062.00;;;;5005936;28;20229;-68
2023/03/27 03:44:13;;;;;;;0.50;0.50;;;;;7.00;95064.00;;;;5009402;28;20293;-66
2023/03/27 03:47:02;;;;;;;0.33;0.33;;;;;7.20;95072.00;;;;5010711;28;20198;-66
2023/03/27 03:49:51;;;;;;;0.40;0.40;;;;;7.00;95060.00;;;;5004122;28;20261;-67
2023/03/27 03:52:40;;;;;;;1.10;0.40;;;;;6.80;95065.00;;;;5006415;28;20260;-69
2023/03/27 03:55:29;;;;;;;0.47;0.47;;;;;7.00;95075.00;;;;5007000;28;20277;-68
2023/03/27 03:58:20;;;;;;;0.40;0.40;;;;;6.90;95075.00;;;;5010524;28;20582;-68
2023/03/27 04:01:09;;;;;;;0.40;0.40;;;;;7.10;95077.00;;;;5008058;28;20253;-68
2023/03/27 04:03:58;;;;;;;0.50;0.50;;;;;7.00;95074.00;;;;5006689;28;20291;-68
2023/03/27 04:06:47;;;;;;;1.67;0.40;;;;;7.10;95083.00;;;;5001167;28;20572;-68
2023/03/27 04:09:36;;;;;;;2.30;0.67;;;;;7.00;95073.00;;;;5007055;28;20226;-68
2023/03/27 04:12:25;;;;;;;0.20;0.20;;;;;6.80;95071.00;;;;5011039;28;20202;-68
2023/03/27 04:15:16;;;;;;;2.87;0.57;;;;;6.90;95074.00;;;;5009830;28;20693;-68
2023/03/27 04:18:05;;;;;;;0.33;0.33;;;;;6.80;95079.00;;;;5010956;28;20300;-68
2023/03/27 04:20:57;;;;;;;0.50;0.30;;;;;6.60;95085.00;;;;5005520;28;20229;-67
2023/03/27 04:23:48;;;;;;;0.60;0.50;;;;;6.40;95083.00;;;;5007577;28;20198;-68
2023/03/27 04:26:37;;;;;;;0.30;0.30;;;;;6.70;95073.00;;;;5014688;28;20617;-68
2023/03/27 04:29:29;;;;;;;0.50;0.50;;;;;6.60;95086.00;;;;5010042;28;20288;-67
2023/03/27 04:32:19;;;;;;;0.80;0.40;;;;;6.60;95085.00;;;;5000329;28;20230;-68
2023/03/27 04:35:09;;;;;;;0.20;0.20;;;;;6.50;95083.00;;;;5005621;28;20237;-68
2023/03/27 04:38:00;;;;;;;0.30;0.30;;;;;6.30;95076.00;;;;5008148;28;20202;-68
2023/03/27 04:40:51;;;;;;;1.57;0.70;;;;;6.50;95087.00;;;;5004962;28;20309;-68
2023/03/27 04:43:40;;;;;;;0.40;0.40;;;;;6.20;95097.00;;;;5003717;28;20210;-67
2023/03/27 04:46:29;;;;;;;1.70;0.60;;;;;6.30;95099.00;;;;5014296;28;20206;-68
2023/03/27 04:49:19;;;;;;;0.70;0.70;;;;;6.00;95093.00;;;;5007213;28;20293;-68
2023/03/27 04:52:12;;;;;;;0.40;0.40;;;;;5.80;95101.00;;;;4996643;28;20277;-69
2023/03/27 04:55:02;;;;;;;0.43;0.43;;;;;6.10;95107.00;;;;5007827;28;20198;-69
2023/03/27 04:57:50;;;;;;;0.40;0.30;;;;;6.30;95115.00;;;;4998792;28;20210;-69
2023/03/27 05:00:40;;;;;;;0.80;0.57;;;;;6.40;95103.00;;;;5004642;28;20265;-69
2023/03/27 05:03:29;;;;;;;0.30;0.30;;;;;5.90;95116.00;;;;4996608;28;20202;-71
2023/03/27 05:06:19;;;;;;;4.47;0.40;;;;;6.10;95116.00;;;;5004765;28;20202;-71
2023/03/27 05:09:08;;;;;;;0.60;0.40;;;;;6.20;95108.00;;;;5002007;28;20214;-71
2023/03/27 05:11:57;;;;;;;0.53;0.53;;;;;6.00;95114.00;;;;5002367;28;20194;-69
2023/03/27 05:14:47;;;;;;;1.47;0.67;;;;;5.60;95104.00;;;;4998521;28;20241;-71
2023/03/27 05:17:39;;;;;;;0.57;0.57;;;;;6.10;95121.00;;;;5005694;28;20689;-68
2023/03/27 05:20:28;;;;;;;0.40;0.40;;;;;5.80;95113.00;;;;5002430;28;20611;-67
2023/03/27 05:23:18;;;;;;;0.60;0.40;;;;;5.90;95119.00;;;;5005552;28;20209;-67
2023/03/27 05:26:07;;;;;;;3.13;0.50;;;;;5.90;95111.00;;;;5004863;28;20201;-68
2023/03/27 05:28:58;;;;;;;0.30;0.30;;;;;6.00;95119.00;;;;5006236;28;20561;-67
2023/03/27 05:31:47;;;;;;;0.50;0.50;;;;;5.90;95114.00;;;;5001733;28;20202;-66
2023/03/27 05:34:37;;;;;;;0.40;0.40;;;;;6.10;95120.00;;;;5000357;28;20687;-67
2023/03/27 05:37:26;;;;;;;0.40;0.40;;;;;5.90;95117.00;;;;4997189;28;20209;-68
2023/03/27 05:40:19;;;;;;;0.73;0.60;;;;;5.90;95131.00;;;;5008940;28;20720;-66
2023/03/27 05:43:08;;;;;;;0.40;0.40;;;;;5.90;95127.00;;;;5001789;28;20206;-67
2023/03/27 05:45:57;;;;;;;0.30;0.30;;;;;6.00;95116.00;;;;4998468;28;20202;-68
2023/03/27 05:48:47;;;;;;;0.47;0.40;;;;;5.50;95121.00;;;;4988902;28;20209;-73
2023/03/27 05:51:35;;;;;;;0.30;0.30;;;;;5.80;95123.00;;;;5006515;28;20249;-69
2023/03/27 05:54:25;;;;;;;0.50;0.50;;;;;5.70;95135.00;;;;5002494;28;20249;-74
2023/03/27 05:57:15;;;;;;;0.40;0.40;;;;;6.00;95122.00;;;;5001524;28;20847;-65
2023/03/27 06:00:10;;;;;;;0.40;0.40;;;;;5.60;95133.00;;;;5007972;28;20230;-69
2023/03/27 06:03:01;;;;;;;0.43;0.43;;;;;5.90;95130.00;;;;5003343;28;20274;-66
2023/03/27 06:05:51;;;;;;;0.40;0.40;;;;;5.90;95134.00;;;;5003915;28;20206;-69
2023/03/27 06:08:40;;;;;;;1.40;0.90;;;;;6.10;95137.00;;;;5006549;28;20209;-70
2023/03/27 06:11:29;;;;;;;1.60;0.93;;;;;5.80;95131.00;;;;5006038;28;20650;-66
2023/03/27 06:14:19;;;;;;;1.23;1.13;;;;;6.20;95139.00;;;;5008795;28;20214;-65
2023/03/27 06:17:08;;;;;;;2.70;1.63;;;;;6.30;95135.00;;;;5002145;28;20214;-73
2023/03/27 06:19:58;;;;;;;1.53;1.33;;;;;6.50;95144.00;;;;5004721;28;20222;-71
2023/03/27 06:22:48;;;;;;;3.70;1.40;;;;;6.50;95138.00;;;;5004717;28;20222;-68
2023/03/27 06:25:38;;;;;;;0.93;0.87;;;;;6.60;95131.00;;;;4997941;28;20194;-68
2023/03/27 06:28:28;;;;;;;2.07;1.87;;;;;6.40;95141.00;;;;5007635;28;20264;-66
2023/03/27 06:31:18;;;;;;;3.20;2.63;;;;;6.80;95138.00;;;;5004247;28;20276;-66
2023/03/27 06:34:08;;;;;;;1.63;1.30;;;;;6.90;95149.00;;;;5007915;28;20209;-69
2023/03/27 06:36:58;;;;;;;1.43;1.10;;;;;6.80;95149.00;;;;5008610;28;20202;-67
2023/03/27 06:39:49;;;;;;;1.30;1.20;;;;;6.60;95159.00;;;;5000384;28;20234;-68
2023/03/27 06:42:38;;;;;;;0.67;0.67;;;;;6.80;95144.00;;;;5003181;28;20228;-69
2023/03/27 06:45:31;;;;;;;2.93;1.40;;;;;7.00;95160.00;;;;5008962;28;20221;-69
2023/03/27 06:48:23;;;;;;;0.77;0.77;;;;;7.30;95161.00;;;;5003379;28;20674;-68
2023/03/27 06:51:12;;;;;;;0.90;0.90;;;;;6.90;95158.00;;;;5006828;28;20232;-71
2023/03/27 06:54:02;;;;;;;0.73;0.73;;;;;6.90;95156.00;;;;5001985;28;20673;-68
2023/03/27 06:56:51;;;;;;;1.37;1.03;;;;;7.00;95165.00;;;;5005260;28;20293;-67
2023/03/27 06:59:40;;;;;;;0.80;0.80;;;;;7.40;95167.00;;;;5001514;28;20217;-68
2023/03/27 07:02:29;;;;;;;1.37;1.10;;;;;7.70;95180.00;;;;5002168;28;20218;-68
2023/03/27 07:05:19;;;;;;;0.70;0.70;;;;;7.80;95178.00;;;;5005405;28;20201;-67
2023/03/27 07:08:10;;;;;;;0.73;0.73;;;;;7.90;95183.00;;;;5005855;28;20204;-67
2023/03/27 07:11:09;;;;;;;0.70;0.67;;;;;7.50;95173.00;;;;5006401;28;20244;-67
2023/03/27 07:14:00;;;;;;;2.00;1.90;;;;;7.90;95193.00;;;;5001480;28;20213;-68
2023/03/27 07:16:49;;;;;;;0.67;0.67;;;;;8.00;95184.00;;;;5000991;28;20209;-68
2023/03/27 07:19:37;;;;;;;17.00;1.77;;;;;8.60;95186.00;;;;4997679;28;20221;-68
2023/03/27 07:22:28;;;;;;;5.03;2.87;;;;;7.90;95178.00;;;;5008619;28;20313;-68
2023/03/27 07:25:17;;;;;;;1.70;0.90;;;;;8.30;95188.00;;;;5002761;28;20326;-67
2023/03/27 07:28:08;;;;;;;3.40;0.60;;;;;8.20;95183.00;;;;5005754;28;20262;-69
2023/03/27 07:30:57;;;;;;;0.77;0.67;;;;;8.80;95191.00;;;;5002995;28;20315;-69
2023/03/27 07:33:46;;;;;;;1.37;0.80;;;;;9.10;95197.00;;;;5005736;28;20220;-69
2023/03/27 07:36:35;;;;;;;0.60;0.60;;;;;9.10;95207.00;;;;5002323;28;20236;-68
2023/03/27 07:39:26;;;;;;;0.50;0.50;;;;;9.30;95196.00;;;;5003296;28;20312;-68
2023/03/27 07:42:15;;;;;;;0.77;0.63;;;;;9.70;95206.00;;;;5008386;28;20756;-68
2023/03/27 07:45:04;;;;;;;0.80;0.70;;;;;10.30;95209.00;;;;5004725;28;20261;-68
2023/03/27 07:47:53;;;;;;;1.00;0.90;;;;;10.70;95212.00;;;;5000268;28;20558;-69
2023/03/27 07:50:43;;;;;;;0.70;0.70;;;;;10.90;95217.00;;;;5001181;28;20638;-69
2023/03/27 07:53:34;;;;;;;1.10;0.70;;;;;11.40;95213.00;;;;5007198;28;20198;-69
2023/03/27 07:56:25;;;;;;;0.70;0.70;;;;;11.10;95231.00;;;;5000781;28;20225;-69
2023/03/27 07:59:15;;;;;;;1.10;0.97;;;;;11.30;95210.00;;;;5003478;28;20210;-69
2023/03/27 08:02:04;;;;;;;1.23;0.73;;;;;11.90;95229.00;;;;5006373;28;20267;-69
2023/03/27 08:04:53;;;;;;;0.50;0.50;;;;;12.30;95225.00;;;;5008577;28;20217;-69
2023/03/27 08:07:44;;;;;;;0.40;0.40;;;;;12.60;95223.00;;;;5002155;28;20202;-69
2023/03/27 08:10:33;;;;;;;1.70;0.77;;;;;12.70;95246.00;;;;5007522;28;20732;-69
2023/03/27 08:13:23;;;;;;;0.30;0.30;;;;;12.20;95204.00;;;;5004217;28;20202;-66
2023/03/27 08:16:14;;;;;;;1.03;0.30;;;;;11.40;95219.00;;;;5004555;28;20217;-65
2023/03/27 08:19:05;;;;;;;3.80;0.20;;;;;11.40;95231.00;;;;5004502;28;20210;-64
2023/03/27 08:21:54;;;;;;;0.43;0.40;;;;;11.00;95238.00;;;;5005721;28;20229;-70
2023/03/27 08:24:43;;;;;;;0.30;0.30;;;;;11.50;95252.00;;;;5002370;28;20230;-63
2023/03/27 08:27:32;;;;;;;0.50;0.20;;;;;11.30;95234.00;;;;5003096;28;20256;-66
2023/03/27 08:30:22;;;;;;;0.83;0.80;;;;;11.50;95246.00;;;;5004973;28;20221;-62
2023/03/27 08:33:11;;;;;;;0.20;0.20;;;;;11.20;95253.00;;;;5006857;28;20296;-63
2023/03/27 08:36:00;;;;;;;0.93;0.27;;;;;11.20;95252.00;;;;5010255;28;20245;-62
2023/03/27 08:38:50;;;;;;;5.57;0.43;;;;;11.20;95249.00;;;;5005039;28;20815;-65
2023/03/27 08:41:41;;;;;;;0.50;0.20;;;;;10.70;95260.00;;;;5008088;28;20198;-68
2023/03/27 08:44:31;;;;;;;0.40;0.30;;;;;11.60;95259.00;;;;5002630;28;20265;-67
2023/03/27 08:47:26;;;;;;;0.43;0.43;;;;;11.50;95269.00;;;;5004686;28;20249;-69
2023/03/27 08:50:21;;;;;;;0.20;0.20;;;;;11.90;95272.00;;;;5008258;28;20236;-68
2023/03/27 08:53:17;;;;;;;0.40;0.20;;;;;11.30;95271.00;;;;5012065;28;20236;-68
2023/03/27 08:56:07;;;;;;;0.30;0.30;;;;;11.90;95266.00;;;;5001048;28;20215;-66
2023/03/27 08:58:56;;;;;;;0.20;0.20;;;;;10.90;95256.00;;;;5005848;28;20211;-71
2023/03/27 09:01:51;;;;;;;0.73;0.53;;;;;11.70;95265.00;;;;5002200;28;20256;-66
2023/03/27 09:04:47;;;;;;;0.20;0.20;;;;;10.70;95267.00;;;;5000387;28;20209;-64
2023/03/27 09:07:40;;;;;;;0.33;0.20;;;;;10.80;95256.00;;;;5001220;28;20198;-69
2023/03/27 09:10:35;;;;;;;0.60;0.60;;;;;11.10;95260.00;;;;5002463;28;20229;-66
2023/03/27 09:13:29;;;;;;;0.60;0.60;;;;;11.80;95266.00;;;;5006016;28;20215;-67
2023/03/27 09:16:21;;;;;;;2.63;0.50;;;;;12.30;95281.00;;;;5008609;28;20651;-67
2023/03/27 09:19:16;;;;;;;0.50;0.50;;;;;11.70;95272.00;;;;5007875;28;20251;-67
2023/03/27 09:22:10;;;;;;;0.43;0.43;;;;;11.80;95284.00;;;;5008987;28;20261;-66
2023/03/27 09:25:07;;;;;;;0.40;0.30;;;;;12.30;95288.00;;;;5003434;28;20286;-66
2023/03/27 09:27:56;;;;;;;0.27;0.27;;;;;12.10;95277.00;;;;5005045;28;20338;-66
2023/03/27 09:30:46;;;;;;;0.20;0.20;;;;;12.00;95290.00;;;;4998919;28;20229;-73
2023/03/27 09:33:40;;;;;;;0.20;0.20;;;;;12.80;95282.00;;;;5000494;28;20198;-68
2023/03/27 09:36:29;;;;;;;0.23;0.23;;;;;12.60;95283.00;;;;5007014;28;20695;-69
2023/03/27 09:39:22;;;;;;;0.20;0.20;;;;;12.70;95304.00;;;;5003444;28;20206;-71
2023/03/27 09:42:18;;;;;;;2.00;0.20;;;;;13.00;95308.00;;;;5008322;28;20242;-67
2023/03/27 09:45:10;;;;;;;0.20;0.20;;;;;13.10;95308.00;;;;5007840;28;20210;-68
2023/03/27 09:48:00;;;;;;;0.20;0.20;;;;;12.40;95300.00;;;;5004093;28;20213;-72
2023/03/27 09:50:49;;;;;;;0.20;0.20;;;;;11.90;95308.00;;;;5004173;28;20226;-70
2023/03/27 09:53:41;;;;;;;0.30;0.30;;;;;11.40;95315.00;;;;5002317;28;20625;-69
2023/03/27 09:56:34;;;;;;;1.37;0.30;;;;;11.50;95316.00;;;;5004553;28;20260;-70
2023/03/27 09:59:26;;;;;;;0.37;0.20;;;;;11.30;95331.00;;;;5005223;28;20209;-65
2023/03/27 10:02:21;;;;;;;0.20;0.20;;;;;11.80;95361.00;;;;5002957;28;20696;-70
2023/03/27 10:05:18;;;;;;;0.20;0.20;;;;;12.60;95380.00;;;;5004630;28;20202;-69
2023/03/27 10:08:30;;;;;;;0.20;0.20;;;;;12.30;95376.00;;;;5008968;28;20253;-66
2023/03/27 10:11:22;;;;;;;0.20;0.20;;;;;12.00;95393.00;;;;5006953;28;20332;-70
2023/03/27 10:14:17;;;;;;;0.20;0.20;;;;;12.90;95412.00;;;;5001539;28;20273;-69
2023/03/27 10:17:06;;;;;;;0.37;0.23;;;;;12.80;95432.00;;;;5005240;28;20357;-69
2023/03/27 10:20:03;;;;;;;0.40;0.40;;;;;12.20;95449.00;;;;5007364;28;20222;-71
2023/03/27 10:22:54;;;;;;;0.47;0.40;;;;;11.80;95453.00;;;;5004539;28;20587;-72
2023/03/27 10:25:51;;;;;;;0.43;0.30;;;;;12.40;95464.00;;;;5001066;28;20210;-69
2023/03/27 10:28:47;;;;;;;0.40;0.40;;;;;11.40;95471.00;;;;5000582;28;20269;-66
2023/03/27 10:31:38;;;;;;;0.40;0.40;;;;;11.60;95477.00;;;;5000353;28;20221;-68
2023/03/27 10:34:35;;;;;;;0.63;0.47;;;;;12.60;95491.00;;;;5002430;28;20205;-66
2023/03/27 10:37:29;;;;;;;1.43;0.53;;;;;13.10;95504.00;;;;5005992;28;20587;-65
2023/03/27 10:40:20;;;;;;;0.30;0.20;;;;;12.80;95508.00;;;;5007687;28;20225;-67
2023/03/27 10:43:12;;;;;;;7.93;2.30;;;;;12.20;95519.00;;;;5001566;28;20689;-68
2023/03/27 10:46:04;;;;;;;0.40;0.40;;;;;12.90;95525.00;;;;5005045;28;20266;-67
2023/03/27 10:49:01;;;;;;;1.90;0.30;;;;;12.20;95543.00;;;;5001498;28;20202;-66
2023/03/27 10:51:51;;;;;;;1.53;1.00;;;;;13.10;95547.00;;;;5006798;28;20202;-66
2023/03/27 10:54:45;;;;;;;0.20;0.20;;;;;13.00;95539.00;;;;5004341;28;20202;-66
2023/03/27 10:57:36;;;;;;;0.40;0.30;;;;;12.20;95549.00;;;;5000784;28;20245;-66
2023/03/27 11:00:32;;;;;;;0.70;0.40;;;;;11.70;95525.00;;;;5003405;28;20214;-63
2023/03/27 11:03:26;;;;;;;0.20;0.20;;;;;12.40;95518.00;;;;5007508;28;20658;-65
2023/03/27 11:06:18;;;;;;;0.20;0.20;;;;;11.50;95498.00;;;;5007272;28;20220;-66
2023/03/27 11:09:15;;;;;;;0.47;0.20;;;;;13.40;95515.00;;;;5005584;28;20761;-65
2023/03/27 11:12:07;;;;;;;0.20;0.20;;;;;12.60;95503.00;;;;5002080;28;20206;-63
2023/03/27 11:15:00;;;;;;;0.80;0.20;;;;;13.30;95524.00;;;;4998118;28;20206;-64
2023/03/27 11:17:55;;;;;;;0.20;0.20;;;;;13.20;95522.00;;;;4997168;28;20214;-66
2023/03/27 11:20:47;;;;;;;1.17;0.30;;;;;13.80;95554.00;;;;4999775;28;20720;-66
2023/03/27 11:23:39;;;;;;;0.83;0.20;;;;;12.10;95562.00;;;;4999351;28;20856;-68
2023/03/27 11:26:34;;;;;;;0.20;0.20;;;;;12.20;95534.00;;;;5002960;28;20245;-69
2023/03/27 11:29:27;;;;;;;0.20;0.20;;;;;12.20;95606.00;;;;5002608;28;20279;-72
2023/03/27 11:32:27;;;;;;;0.20;0.20;;;;;13.90;95547.00;;;;5006718;28;20209;-64
2023/03/27 11:35:22;;;;;;;0.20;0.20;;;;;12.20;95566.00;;;;5005417;28;20696;-72
2023/03/27 11:38:16;;;;;;;0.20;0.20;;;;;13.30;95598.00;;;;5000918;28;20203;-67
2023/03/27 11:41:09;;;;;;;0.30;0.30;;;;;14.20;95595.00;;;;5005677;28;21053;-64
2023/03/27 11:43:58;;;;;;;0.20;0.10;;;;;11.80;95558.00;;;;4995461;28;20229;-70
2023/03/27 11:47:11;;;;;;;1.80;0.20;;;;;13.00;95576.00;;;;4999534;28;20220;-68
2023/03/27 11:50:18;;;;;;;1.07;0.20;;;;;11.40;95550.00;;;;5002631;28;20252;-72
2023/03/27 11:53:17;;;;;;;0.90;0.30;;;;;13.30;95575.00;;;;5008204;28;20201;-66
2023/03/27 11:56:35;;;;;;;0.20;0.20;;;;;12.70;95558.00;;;;4998901;28;20714;-65
2023/03/27 11:59:38;;;;;;;0.20;0.20;;;;;13.80;95583.00;;;;5002941;28;20198;-67
2023/03/27 12:02:41;;;;;;;0.77;0.30;;;;;12.50;95588.00;;;;5007727;28;20689;-65
2023/03/27 12:05:38;;;;;;;0.40;0.20;;;;;12.20;95587.00;;;;5010906;28;20700;-64
2023/03/27 12:08:33;;;;;;;0.20;0.20;;;;;11.90;95600.00;;;;5008276;28;20308;-70
2023/03/27 12:11:25;;;;;;;0.20;0.20;;;;;13.10;95638.00;;;;5008677;28;21087;-65
2023/03/27 12:14:46;;;;;;;0.20;0.20;;;;;12.50;95635.00;;;;5003433;28;20551;-67
2023/03/27 12:17:46;;;;;;;0.20;0.20;;;;;12.50;95658.00;;;;4982678;28;20202;-66
2023/03/27 12:20:51;;;;;;;0.40;0.20;;;;;13.10;95651.00;;;;5003718;28;20225;-68
2023/03/27 12:23:56;;;;;;;0.20;0.20;;;;;13.60;95686.00;;;;5004362;28;20591;-69
2023/03/27 12:27:14;;;;;;;0.50;0.20;;;;;13.20;95671.00;;;;5005863;28;20213;-68
2023/03/27 12:30:25;;;;;;;0.20;0.20;;;;;11.80;95660.00;;;;5002628;28;20226;-66
2023/03/27 12:33:31;;;;;;;2.53;0.20;;;;;14.00;95672.00;;;;5006922;28;20737;-65
2023/03/27 12:36:23;;;;;;;0.20;0.20;;;;;10.90;95664.00;;;;5006772;28;20217;-61
2023/03/27 12:39:17;;;;;;;0.40;0.30;;;;;11.90;95688.00;;;;5006815;28;20218;-67
2023/03/27 12:42:15;;;;;;;0.20;0.20;;;;;11.40;95707.00;;;;5011285;28;20202;-72
2023/03/27 12:45:13;;;;;;;0.20;0.20;;;;;11.70;95699.00;;;;5007830;28;20254;-64
2023/03/27 12:48:17;;;;;;;0.27;0.27;;;;;12.00;95720.00;;;;5000487;28;20207;-67
2023/03/27 12:51:13;;;;;;;0.20;0.20;;;;;12.90;95732.00;;;;5006963;28;20372;-67
2023/03/27 12:54:14;;;;;;;0.23;0.20;;;;;12.40;95734.00;;;;5004871;28;20237;-70
2023/03/27 12:57:06;;;;;;;0.57;0.27;;;;;11.40;95716.00;;;;5004396;28;20222;-65
2023/03/27 12:59:58;;;;;;;0.40;0.30;;;;;13.20;95693.00;;;;5006758;28;20601;-65
2023/03/27 13:03:31;;;;;;;0.20;0.20;;;;;13.20;95684.00;;;;5005013;28;20205;-67
2023/03/27 13:06:30;;;;;;;0.20;0.20;;;;;12.20;95691.00;;;;5009839;28;20240;-63
2023/03/27 13:09:40;;;;;;;0.20;0.20;;;;;12.20;95738.00;;;;5010295;28;20209;-69
2023/03/27 13:12:47;;;;;;;0.20;0.20;;;;;14.80;95771.00;;;;5006765;28;20225;-63
2023/03/27 13:15:48;;;;;;;0.30;0.20;;;;;13.90;95777.00;;;;5002098;28;20205;-72
2023/03/27 13:18:47;;;;;;;0.20;0.20;;;;;13.50;95734.00;;;;5003962;28;20849;-63
2023/03/27 13:21:44;;;;;;;0.20;0.20;;;;;13.70;95786.00;;;;5006550;28;20249;-64
2023/03/27 13:24:50;;;;;;;0.30;0.30;;;;;14.20;95748.00;;;;5007462;28;20281;-62
2023/03/27 13:27:53;;;;;;;0.20;0.20;;;;;15.80;95837.00;;;;5002606;28;20209;-65
2023/03/27 13:30:46;;;;;;;0.20;0.20;;;;;15.40;95838.00;;;;4997835;28;20233;-69
2023/03/27 13:33:46;;;;;;;0.93;0.20;;;;;13.20;95816.00;;;;4999045;28;20284;-63
2023/03/27 13:36:35;;;;;;;0.30;0.30;;;;;13.20;95809.00;;;;5002548;28;20194;-69
2023/03/27 13:39:24;;;;;;;0.20;0.20;;;;;12.00;95846.00;;;;5000861;28;20286;-67
2023/03/27 13:42:14;;;;;;;0.20;0.20;;;;;12.90;95851.00;;;;5007214;28;20593;-76
2023/03/27 13:45:08;;;;;;;0.30;0.30;;;;;12.70;95830.00;;;;4999615;28;20505;-67
2023/03/27 13:48:24;;;;;;;0.30;0.30;;;;;13.40;95838.00;;;;5009844;28;20234;-70
2023/03/27 13:51:39;;;;;;;0.40;0.40;;;;;13.90;95859.00;;;;5004570;28;20305;-67
2023/03/27 13:54:42;;;;;;;0.20;0.20;;;;;11.80;95811.00;;;;5004022;28;20943;-65
2023/03/27 13:57:51;;;;;;;0.20;0.20;;;;;12.70;95869.00;;;;5007832;28;20808;-64
2023/03/27 14:00:58;;;;;;;2.17;0.40;;;;;14.30;95926.00;;;;5003614;28;20235;-64
2023/03/27 14:04:19;;;;;;;0.30;0.30;;;;;14.30;95877.00;;;;5002786;28;20233;-65
2023/03/27 14:07:43;;;;;;;0.30;0.30;;;;;12.30;95890.00;;;;5002823;28;20217;-63
2023/03/27 14:10:42;;;;;;;0.30;0.30;;;;;11.50;95907.00;;;;5000379;28;20303;-74
2023/03/27 14:14:00;;;;;;;0.87;0.57;;;;;13.20;95866.00;;;;5005446;28;20198;-65
2023/03/27 14:17:16;;;;;;;0.20;0.20;;;;;10.40;95889.00;;;;5004019;28;20293;-65
2023/03/27 14:20:21;;;;;;;1.63;0.63;;;;;12.60;95918.00;;;;5006954;28;20230;-63
2023/03/27 14:23:12;;;;;;;0.37;0.37;;;;;12.80;95915.00;;;;5024996;28;20210;-75
2023/03/27 14:26:04;;;;;;;1.07;0.60;;;;;12.40;95894.00;;;;4995133;28;20276;-67
2023/03/27 14:28:57;;;;;;;0.67;0.20;;;;;11.20;95949.00;;;;5002551;28;20280;-63
2023/03/27 14:31:46;;;;;;;2.00;1.20;;;;;14.00;95934.00;;;;5001197;28;20284;-64
2023/03/27 14:34:36;;;;;;;1.17;0.60;;;;;13.10;95949.00;;;;5004552;28;20213;-63
2023/03/27 14:37:35;;;;;;;0.60;0.50;;;;;12.40;95963.00;;;;5003382;28;20212;-63